Time;durP1;ratioP1;P1;durP2;ratioP2;P2;SDS_P1;SDS_P2;PMS_P1;PMS_P2;Temp;Humidity;BMP_temperature;BMP_pressure;BME280_temperature;BME280_humidity;BME280_pressure;Samples;Min_cycle;Max_cycle;Signal;HPM_P1;HPM_P2
2022/11/23 00:01:51;;;;;;;;;;;6.40;85.20;;;-151.14;100.00;62537.16;5077933;28;20148;-80
2022/11/23 00:04:19;;;;;;;;;;;6.40;85.10;;;-151.14;100.00;62537.16;5078419;28;19920;-81
2022/11/23 00:06:47;;;;;;;;;;;6.40;85.20;;;-151.14;100.00;62537.16;5078033;28;19920;-80
2022/11/23 00:09:15;;;;;;;;;;;6.40;85.20;;;-151.14;100.00;62537.16;5078548;28;19919;-81
2022/11/23 00:11:43;;;;;;;;;;;6.40;85.00;;;-151.14;100.00;62537.16;5113448;28;19926;-80
2022/11/23 00:14:11;;;;;;;;;;;6.30;85.10;;;-151.14;100.00;62537.16;5113081;28;19977;-81
2022/11/23 00:16:39;;;;;;;;;;;6.40;85.20;;;-151.14;100.00;62537.16;5078121;28;19920;-80
2022/11/23 00:19:09;;;;;;;;;;;6.30;85.10;;;-151.14;100.00;62537.16;5094889;28;20141;-80
2022/11/23 00:21:36;;;;;;;;;;;6.40;85.10;;;-151.14;100.00;62537.16;5095042;28;19926;-80
2022/11/23 00:24:05;;;;;;;;;;;6.40;85.20;;;-151.14;100.00;62537.16;5094838;28;19920;-81
2022/11/23 00:26:33;;;;;;;;;;;6.40;85.00;;;-151.14;100.00;62537.16;5094613;28;19919;-81
2022/11/23 00:29:01;;;;;;;;;;;6.30;85.20;;;-151.14;100.00;62537.16;5111692;28;19919;-81
2022/11/23 00:31:29;;;;;;;;;;;6.30;85.10;;;-151.14;100.00;62537.16;5094877;28;20211;-80
2022/11/23 00:33:57;;;;;;;;;;;6.40;85.10;;;-151.14;100.00;62537.16;5094879;28;19930;-81
2022/11/23 00:36:27;;;;;;;;;;;6.30;85.20;;;-151.14;100.00;62537.16;5094483;28;20152;-80
2022/11/23 00:38:56;;;;;;;;;;;6.40;85.20;;;-151.14;100.00;62537.16;5094612;28;19920;-81
2022/11/23 00:41:25;;;;;;;;;;;6.30;85.20;;;-151.14;100.00;62537.16;5078056;28;20208;-81
2022/11/23 00:43:52;;;;;;;;;;;6.30;85.20;;;-151.14;100.00;62537.16;5094548;28;19920;-80
2022/11/23 00:46:21;;;;;;;;;;;6.30;85.10;;;-151.14;100.00;62537.16;5077534;28;19934;-80
2022/11/23 00:48:50;;;;;;;;;;;6.30;85.10;;;-151.14;100.00;62537.16;5077685;28;19930;-80
2022/11/23 00:51:19;;;;;;;;;;;6.30;85.20;;;-151.14;100.00;62537.16;5112696;28;19942;-80
2022/11/23 00:53:49;;;;;;;;;;;6.30;85.10;;;-151.14;100.00;62537.16;5077549;28;20253;-81
2022/11/23 00:56:17;;;;;;;;;;;6.30;85.10;;;-151.14;100.00;62537.16;5111286;28;19926;-80
2022/11/23 00:58:48;;;;;;;;;;;6.30;85.10;;;-151.14;100.00;62537.16;5086390;28;19919;-81
2022/11/23 01:01:16;;;;;;;;;;;6.30;85.10;;;-151.14;100.00;62537.16;5111535;28;19920;-80
2022/11/23 01:03:45;;;;;;;;;;;6.30;85.10;;;-151.14;100.00;62537.16;5093977;28;19920;-81
2022/11/23 01:06:14;;;;;;;;;;;6.30;85.10;;;-151.14;100.00;62537.16;5077176;28;19927;-81
2022/11/23 01:08:42;;;;;;;;;;;6.30;85.20;;;-151.14;100.00;62537.16;5093457;28;19924;-80
2022/11/23 01:11:12;;;;;;;;;;;6.30;85.10;;;-151.14;100.00;62537.16;5111397;28;19926;-81
2022/11/23 01:13:40;;;;;;;;;;;6.30;85.20;;;-151.14;100.00;62537.16;5077003;28;19920;-81
2022/11/23 01:16:10;;;;;;;;;;;6.30;85.20;;;-151.14;100.00;62537.16;5093999;28;19919;-80
2022/11/23 01:18:38;;;;;;;;;;;6.30;85.20;;;-151.14;100.00;62537.16;5093386;28;19921;-80
2022/11/23 01:21:06;;;;;;;;;;;6.30;85.20;;;-151.14;100.00;62537.16;5077273;28;19939;-81
2022/11/23 01:23:34;;;;;;;;;;;6.30;85.30;;;-151.14;100.00;62537.16;5077123;28;19926;-81
2022/11/23 01:26:04;;;;;;;;;;;6.30;85.20;;;-151.14;100.00;62537.16;5111930;28;19920;-80
2022/11/23 01:28:34;;;;;;;;;;;6.30;85.30;;;-151.14;100.00;62537.16;5093811;28;19946;-80
2022/11/23 01:31:06;;;;;;;;;;;6.30;85.10;;;-151.14;100.00;62537.16;5094050;28;19926;-80
2022/11/23 01:33:34;;;;;;;;;;;6.30;85.20;;;-151.14;100.00;62537.16;5076792;28;19927;-80
2022/11/23 01:36:09;;;;;;;;;;;6.30;85.10;;;-151.14;100.00;62537.16;5076893;28;19920;-81
2022/11/23 01:38:37;;;;;;;;;;;6.30;85.10;;;-151.14;100.00;62537.16;5093650;28;19926;-81
2022/11/23 01:41:05;;;;;;;;;;;6.30;85.90;;;-151.14;100.00;62537.16;5110838;28;19924;-80
2022/11/23 01:43:35;;;;;;;;;;;6.30;85.10;;;-151.14;100.00;62537.16;5111696;28;19928;-81
2022/11/23 01:46:03;;;;;;;;;;;6.30;85.20;;;-151.14;100.00;62537.16;5093311;28;19920;-81
2022/11/23 01:48:32;;;;;;;;;;;6.30;85.20;;;-151.14;100.00;62537.16;5093656;28;20216;-80
2022/11/23 01:51:02;;;;;;;;;;;6.30;85.20;;;-151.14;100.00;62537.16;5110788;28;19946;-80
2022/11/23 01:53:30;;;;;;;;;;;6.30;85.30;;;-151.14;100.00;62537.16;5093146;28;19926;-80
2022/11/23 01:56:00;;;;;;;;;;;6.30;85.20;;;-151.14;100.00;62537.16;5110484;28;19920;-80
2022/11/23 01:58:30;;;;;;;;;;;6.30;85.20;;;-151.14;100.00;62537.16;5076842;28;19919;-80
2022/11/23 02:01:00;;;;;;;;;;;6.30;85.30;;;-151.14;100.00;62537.16;5093533;28;19920;-80
2022/11/23 02:03:28;;;;;;;;;;;6.30;85.30;;;-151.14;100.00;62537.16;5093328;28;20105;-81
2022/11/23 02:06:00;;;;;;;;;;;6.30;85.30;;;-151.14;100.00;62537.16;5089803;28;20117;-81
2022/11/23 02:08:28;;;;;;;;;;;6.30;85.30;;;-151.14;100.00;62537.16;5073145;28;19920;-81
2022/11/23 02:10:56;;;;;;;;;;;6.30;85.30;;;-151.14;100.00;62537.16;5090037;28;19926;-80
2022/11/23 02:13:26;;;;;;;;;;;6.30;85.50;;;-151.14;100.00;62537.16;5072836;28;19920;-80
2022/11/23 02:15:54;;;;;;;;;;;6.30;85.30;;;-151.14;100.00;62537.16;5089809;28;19927;-81
2022/11/23 02:18:24;;;;;;;;;;;6.30;85.30;;;-151.14;100.00;62537.16;5090967;28;19942;-80
2022/11/23 02:20:52;;;;;;;;;;;6.30;85.20;;;-151.14;100.00;62537.16;5074261;28;19927;-81
2022/11/23 02:23:26;;;;;;;;;;;6.30;85.20;;;-151.14;100.00;62537.16;5076515;28;19926;-81
2022/11/23 02:25:58;;;;;;;;;;;6.30;85.30;;;-151.14;100.00;62537.16;5093543;28;19920;-80
2022/11/23 02:28:29;;;;;;;;;;;6.30;85.30;;;-151.14;100.00;62537.16;5094492;28;19924;-80
2022/11/23 02:30:57;;;;;;;;;;;6.30;85.40;;;-151.14;100.00;62537.16;5093551;28;20111;-80
2022/11/23 02:33:25;;;;;;;;;;;6.30;85.20;;;-151.14;100.00;62537.16;5093429;28;19920;-81
2022/11/23 02:35:53;;;;;;;;;;;6.30;85.40;;;-151.14;100.00;62537.16;5076407;28;19920;-81
2022/11/23 02:38:24;;;;;;;;;;;6.30;85.30;;;-151.14;100.00;62537.16;5093293;28;19927;-80
2022/11/23 02:40:52;;;;;;;;;;;6.30;85.20;;;-151.14;100.00;62537.16;5076691;28;19932;-81
2022/11/23 02:43:24;;;;;;;;;;;6.30;85.30;;;-151.14;100.00;62537.16;5093212;28;20226;-81
2022/11/23 02:45:56;;;;;;;;;;;6.30;86.10;;;-151.14;100.00;62537.16;5092850;28;19926;-81
2022/11/23 02:48:25;;;;;;;;;;;6.30;85.30;;;-151.14;100.00;62537.16;5076324;28;19924;-81
2022/11/23 02:50:53;;;;;;;;;;;6.30;85.30;;;-151.14;100.00;62537.16;5076615;28;19920;-81
2022/11/23 02:53:21;;;;;;;;;;;6.30;85.30;;;-151.14;100.00;62537.16;5075877;28;19934;-81
2022/11/23 02:55:49;;;;;;;;;;;6.30;85.40;;;-151.14;100.00;62537.16;5076103;28;19920;-81
2022/11/23 02:58:18;;;;;;;;;;;6.30;85.20;;;-151.14;100.00;62537.16;5092866;28;19927;-81
2022/11/23 03:00:49;;;;;;;;;;;6.30;85.30;;;-151.14;100.00;62537.16;5076221;28;19920;-81
2022/11/23 03:03:20;;;;;;;;;;;6.20;85.20;;;-151.14;100.00;62537.16;5109602;28;19920;-82
2022/11/23 03:05:48;;;;;;;;;;;6.30;85.30;;;-151.14;100.00;62537.16;5093549;28;19935;-81
2022/11/23 03:08:16;;;;;;;;;;;6.30;85.50;;;-151.14;100.00;62537.16;5092594;28;19950;-81
2022/11/23 03:10:44;;;;;;;;;;;6.30;85.30;;;-151.14;100.00;62537.16;5076227;28;19926;-81
2022/11/23 03:13:12;;;;;;;;;;;6.30;85.40;;;-151.14;100.00;62537.16;5092698;28;19920;-82
2022/11/23 03:15:41;;;;;;;;;;;6.30;85.30;;;-151.14;100.00;62537.16;5075691;28;19920;-81
2022/11/23 03:18:12;;;;;;;;;;;6.30;85.30;;;-151.14;100.00;62537.16;5075645;28;19942;-81
2022/11/23 03:20:40;;;;;;;;;;;6.30;85.40;;;-151.14;100.00;62537.16;5092943;28;19927;-80
2022/11/23 03:23:08;;;;;;;;;;;6.20;85.30;;;-151.14;100.00;62537.16;5092520;28;19924;-81
2022/11/23 03:25:36;;;;;;;;;;;6.30;85.40;;;-151.14;100.00;62537.16;5092378;28;19924;-81
2022/11/23 03:28:05;;;;;;;;;;;6.30;85.50;;;-151.14;100.00;62537.16;5091745;28;19926;-80
2022/11/23 03:30:34;;;;;;;;;;;6.30;85.50;;;-151.14;100.00;62537.16;5091586;28;20216;-81
2022/11/23 03:33:04;;;;;;;;;;;6.30;85.40;;;-151.14;100.00;62537.16;5075567;28;19942;-81
2022/11/23 03:35:33;;;;;;;;;;;6.30;85.40;;;-151.14;100.00;62537.16;5092108;28;19920;-81
2022/11/23 03:38:21;;;;;;;;;;;6.30;85.40;;;-151.14;100.00;62537.16;5092438;28;20115;-81
2022/11/23 03:40:49;;;;;;;;;;;6.20;85.30;;;-151.14;100.00;62537.16;5075555;28;19920;-81
2022/11/23 03:43:40;;;;;;;;;;;6.20;85.40;;;-151.14;100.00;62537.16;5074988;28;19920;-80
2022/11/23 03:46:09;;;;;;;;;;;6.20;85.40;;;-151.14;100.00;62537.16;5075028;28;20115;-81
2022/11/23 03:48:36;;;;;;;;;;;6.20;85.20;;;-151.14;100.00;62537.16;5093105;28;19928;-81
2022/11/23 03:51:06;;;;;;;;;;;6.30;85.30;;;-151.14;100.00;62537.16;5099012;28;19941;-81
2022/11/23 03:53:34;;;;;;;;;;;6.20;85.20;;;-151.14;100.00;62537.16;5112273;28;19981;-81
2022/11/23 03:56:02;;;;;;;;;;;6.20;85.40;;;-151.14;100.00;62537.16;5095315;28;19920;-81
2022/11/23 03:58:34;;;;;;;;;;;6.20;85.40;;;-151.14;100.00;62537.16;5095292;28;19926;-81
2022/11/23 04:01:06;;;;;;;;;;;6.20;85.50;;;-151.14;100.00;62537.16;5095666;28;19927;-81
2022/11/23 04:03:35;;;;;;;;;;;6.20;85.40;;;-151.14;100.00;62537.16;5095093;28;19926;-81
2022/11/23 04:06:15;;;;;;;;;;;6.20;85.40;;;-151.14;100.00;62537.16;5078349;28;19919;-80
2022/11/23 04:09:00;;;;;;;;;;;6.20;85.40;;;-151.14;100.00;62537.16;5095129;28;20268;-80
2022/11/23 04:11:48;;;;;;;;;;;6.20;85.50;;;-151.14;100.00;62537.16;5094937;28;19920;-80
2022/11/23 04:14:16;;;;;;;;;;;6.20;85.40;;;-151.14;100.00;62537.16;5078187;28;19926;-81
2022/11/23 04:16:44;;;;;;;;;;;6.20;85.30;;;-151.14;100.00;62537.16;5094932;28;20100;-81
2022/11/23 04:19:12;;;;;;;;;;;6.20;85.40;;;-151.14;100.00;62537.16;5078187;28;19926;-81
2022/11/23 04:21:42;;;;;;;;;;;6.20;85.40;;;-151.14;100.00;62537.16;5078301;28;19926;-81
2022/11/23 04:24:10;;;;;;;;;;;6.20;85.50;;;-151.14;100.00;62537.16;5111903;28;20077;-81
2022/11/23 04:26:39;;;;;;;;;;;6.20;85.40;;;-151.14;100.00;62537.16;5094578;28;19926;-81
2022/11/23 04:29:09;;;;;;;;;;;6.20;85.40;;;-151.14;100.00;62537.16;5111804;28;19927;-81
2022/11/23 04:31:41;;;;;;;;;;;6.20;85.40;;;-151.14;100.00;62537.16;5078358;28;19919;-81
2022/11/23 04:34:13;;;;;;;;;;;6.20;85.30;;;-151.14;100.00;62537.16;5094481;28;19957;-81
2022/11/23 04:36:43;;;;;;;;;;;6.20;85.30;;;-151.14;100.00;62537.16;5077802;28;19926;-80
2022/11/23 04:39:12;;;;;;;;;;;6.20;85.40;;;-151.14;100.00;62537.16;5077940;28;19920;-81
2022/11/23 04:42:06;;;;;;;;;;;6.20;85.40;;;-151.14;100.00;62537.16;5092475;28;19919;-80
2022/11/23 04:44:35;;;;;;;;;;;6.20;85.40;;;-151.14;100.00;62537.16;5093869;28;19938;-80
2022/11/23 04:47:05;;;;;;;;;;;6.20;85.40;;;-151.14;100.00;62537.16;5111650;28;20111;-81
2022/11/23 04:49:37;;;;;;;;;;;6.20;85.40;;;-151.14;100.00;62537.16;5094535;28;19926;-81
2022/11/23 04:52:06;;;;;;;;;;;6.20;85.40;;;-151.14;100.00;62537.16;5094815;28;19920;-81
2022/11/23 04:54:41;;;;;;;;;;;6.20;85.40;;;-151.14;100.00;62537.16;5077233;28;19920;-81
2022/11/23 04:57:09;;;;;;;;;;;6.20;85.30;;;-151.14;100.00;62537.16;5077738;28;19920;-81
2022/11/23 04:59:39;;;;;;;;;;;6.20;85.40;;;-151.14;100.00;62537.16;5077692;28;19926;-80
2022/11/23 05:02:07;;;;;;;;;;;6.20;85.40;;;-151.14;100.00;62537.16;5088851;28;19926;-81
2022/11/23 05:04:45;;;;;;;;;;;6.20;85.50;;;-151.14;100.00;62537.16;5073854;28;20112;-81
2022/11/23 05:07:16;;;;;;;;;;;6.20;85.40;;;-151.14;100.00;62537.16;5074377;28;19920;-81
2022/11/23 05:09:48;;;;;;;;;;;6.20;85.30;;;-151.14;100.00;62537.16;5057368;28;19969;-81
2022/11/23 05:12:21;;;;;;;;;;;6.20;85.40;;;-151.14;100.00;62537.16;5057506;28;19920;-80
2022/11/23 05:14:49;;;;;;;;;;;6.20;85.40;;;-151.14;100.00;62537.16;5073448;28;20234;-81
2022/11/23 05:17:23;;;;;;;;;;;6.20;85.50;;;-151.14;100.00;62537.16;5091004;28;19920;-81
2022/11/23 05:19:54;;;;;;;;;;;6.20;85.40;;;-151.14;100.00;62537.16;5057294;28;19920;-81
2022/11/23 05:22:25;;;;;;;;;;;6.20;85.40;;;-151.14;100.00;62537.16;5074265;28;20228;-80
2022/11/23 05:24:54;;;;;;;;;;;6.20;85.40;;;-151.14;100.00;62537.16;5073486;28;20231;-80
2022/11/23 05:27:24;;;;;;;;;;;6.20;85.40;;;-151.14;100.00;62537.16;5057507;28;19920;-80
2022/11/23 05:29:52;;;;;;;;;;;6.20;85.30;;;-151.14;100.00;62537.16;5057072;28;19920;-81
2022/11/23 05:32:20;;;;;;;;;;;6.20;85.40;;;-151.14;100.00;62537.16;5057296;28;19926;-81
2022/11/23 05:34:49;;;;;;;;;;;6.20;85.40;;;-151.14;100.00;62537.16;5073424;28;19927;-81
2022/11/23 05:37:18;;;;;;;;;;;6.20;85.40;;;-151.14;100.00;62537.16;5090596;28;20391;-81
2022/11/23 05:39:55;;;;;;;;;;;6.20;85.40;;;-151.14;100.00;62537.16;5073791;28;20230;-80
2022/11/23 05:42:24;;;;;;;;;;;6.20;85.40;;;-151.14;100.00;62537.16;5056881;28;20230;-81
2022/11/23 05:44:56;;;;;;;;;;;6.20;85.50;;;-151.14;100.00;62537.16;5056528;28;19920;-81
2022/11/23 05:47:33;;;;;;;;;;;6.20;85.50;;;-151.14;100.00;62537.16;5056988;28;19920;-81
2022/11/23 05:50:04;;;;;;;;;;;6.20;85.40;;;-151.14;100.00;62537.16;5090448;28;19927;-81
2022/11/23 05:52:33;;;;;;;;;;;6.20;85.40;;;-151.14;100.00;62537.16;5073539;28;19920;-80
2022/11/23 05:55:03;;;;;;;;;;;6.20;85.50;;;-151.14;100.00;62537.16;5089584;28;19920;-81
2022/11/23 05:57:31;;;;;;;;;;;6.20;85.40;;;-151.14;100.00;62537.16;5056896;28;19920;-81
2022/11/23 05:59:59;;;;;;;;;;;6.20;85.40;;;-151.14;100.00;62537.16;5056797;28;19920;-81
2022/11/23 06:02:40;;;;;;;;;;;6.20;85.60;;;-151.14;100.00;62537.16;5093258;28;19920;-81
2022/11/23 06:05:09;;;;;;;;;;;6.20;85.50;;;-151.14;100.00;62537.16;5076168;28;19945;-81
2022/11/23 06:07:45;;;;;;;;;;;6.20;85.50;;;-151.14;100.00;62537.16;5076671;28;19926;-81
2022/11/23 06:10:15;;;;;;;;;;;6.20;85.60;;;-151.14;100.00;62537.16;5076792;28;19933;-81
2022/11/23 06:12:48;;;;;;;;;;;6.20;85.60;;;-151.14;100.00;62537.16;5076713;28;19919;-81
2022/11/23 06:15:18;;;;;;;;;;;6.10;85.50;;;-151.14;100.00;62537.16;5076100;28;19920;-80
2022/11/23 06:17:48;;;;;;;;;;;6.20;85.60;;;-151.14;100.00;62537.16;5093309;28;19934;-81
2022/11/23 06:20:20;;;;;;;;;;;6.10;85.60;;;-151.14;100.00;62537.16;5076767;28;20119;-81
2022/11/23 06:23:01;;;;;;;;;;;6.20;85.50;;;-151.14;100.00;62537.16;5076624;28;19926;-81
2022/11/23 06:25:31;;;;;;;;;;;6.20;85.60;;;-151.14;100.00;62537.16;5076036;28;20207;-81
2022/11/23 06:28:08;;;;;;;;;;;6.20;85.40;;;-151.14;100.00;62537.16;5076521;28;19926;-81
2022/11/23 06:30:42;;;;;;;;;;;6.10;85.50;;;-151.14;100.00;62537.16;5093412;28;19920;-81
2022/11/23 06:33:10;;;;;;;;;;;6.20;85.50;;;-151.14;100.00;62537.16;5111237;28;20089;-81
2022/11/23 06:35:52;;;;;;;;;;;6.20;85.50;;;-151.14;100.00;62537.16;5076105;28;19931;-80
2022/11/23 06:38:20;;;;;;;;;;;6.20;85.40;;;-151.14;100.00;62537.16;5076252;28;19920;-81
2022/11/23 06:40:52;;;;;;;;;;;6.20;85.40;;;-151.14;100.00;62537.16;5093232;28;20208;-81
2022/11/23 06:43:20;;;;;;;;;;;6.20;85.40;;;-151.14;100.00;62537.16;5092984;28;19942;-81
2022/11/23 06:45:49;;;;;;;;;;;6.20;85.30;;;-151.14;100.00;62537.16;5092827;28;19920;-80
2022/11/23 06:48:17;;;;;;;;;;;6.20;85.40;;;-151.14;100.00;62537.16;5076132;28;19928;-80
2022/11/23 06:50:48;;;;;;;;;;;6.20;85.50;;;-151.14;100.00;62537.16;5076216;28;19920;-81
2022/11/23 06:53:17;;;;;;;;;;;6.20;85.40;;;-151.14;100.00;62537.16;5092968;28;19920;-80
2022/11/23 06:55:57;;;;;;;;;;;6.10;85.40;;;-151.14;100.00;62537.16;5075738;28;19920;-81
2022/11/23 06:58:25;;;;;;;;;;;6.20;85.40;;;-151.14;100.00;62537.16;5076084;28;19973;-81
2022/11/23 07:00:54;;;;;;;;;;;6.10;85.40;;;-151.14;100.00;62537.16;5092829;28;19919;-81
2022/11/23 07:03:24;;;;;;;;;;;6.20;85.50;;;-151.14;100.00;62537.16;5092640;28;19926;-80
2022/11/23 07:06:05;;;;;;;;;;;6.20;85.50;;;-151.14;100.00;62537.16;5055732;28;19934;-81
2022/11/23 07:08:34;;;;;;;;;;;6.20;85.50;;;-151.14;100.00;62537.16;5075741;28;19920;-80
2022/11/23 07:11:14;;;;;;;;;;;6.20;85.50;;;-151.14;100.00;62537.16;5076013;28;19926;-81
2022/11/23 07:13:42;;;;;;;;;;;6.20;85.40;;;-151.14;100.00;62537.16;5075881;28;19920;-81
2022/11/23 07:16:11;;;;;;;;;;;6.20;85.60;;;-151.14;100.00;62537.16;5075439;28;19920;-81
2022/11/23 07:18:39;;;;;;;;;;;6.20;85.50;;;-151.14;100.00;62537.16;5075934;28;19926;-81
2022/11/23 07:21:08;;;;;;;;;;;6.20;85.40;;;-151.14;100.00;62537.16;5096096;28;20112;-81
2022/11/23 07:23:39;;;;;;;;;;;6.20;85.40;;;-151.14;100.00;62537.16;5095713;28;20207;-81
2022/11/23 07:26:07;;;;;;;;;;;6.20;85.50;;;-151.14;100.00;62537.16;5112703;28;19919;-80
2022/11/23 07:28:37;;;;;;;;;;;6.20;85.50;;;-151.14;100.00;62537.16;5079066;28;19919;-80
2022/11/23 07:31:05;;;;;;;;;;;6.20;85.40;;;-151.14;100.00;62537.16;5095901;28;19920;-81
2022/11/23 07:33:33;;;;;;;;;;;6.10;85.40;;;-151.14;100.00;62537.16;5095941;28;19926;-80
2022/11/23 07:36:02;;;;;;;;;;;6.20;85.50;;;-151.14;100.00;62537.16;5095515;28;19934;-81
2022/11/23 07:38:31;;;;;;;;;;;6.10;85.40;;;-151.14;100.00;62537.16;5095340;28;19926;-81
2022/11/23 07:41:02;;;;;;;;;;;6.10;85.50;;;-151.14;100.00;62537.16;5079221;28;19926;-81
2022/11/23 07:43:58;;;;;;;;;;;6.20;85.40;;;-151.14;100.00;62537.16;5078721;28;19926;-81
2022/11/23 07:46:26;;;;;;;;;;;6.20;85.40;;;-151.14;100.00;62537.16;5112223;28;19926;-81
2022/11/23 07:48:58;;;;;;;;;;;6.20;85.40;;;-151.14;100.00;62537.16;5112514;28;20204;-81
2022/11/23 07:51:26;;;;;;;;;;;6.20;85.40;;;-151.14;100.00;62537.16;5095757;28;19920;-80
2022/11/23 07:53:53;;;;;;;;;;;6.20;85.40;;;-151.14;100.00;62537.16;5095300;28;19934;-81
2022/11/23 07:56:21;;;;;;;;;;;6.20;85.30;;;-151.14;100.00;62537.16;5113429;28;19942;-81
2022/11/23 07:58:49;;;;;;;;;;;6.20;85.30;;;-151.14;100.00;62537.16;5095328;28;19920;-81
2022/11/23 08:01:19;;;;;;;;;;;6.10;85.30;;;-151.14;100.00;62537.16;5078678;28;19920;-81
2022/11/23 08:03:47;;;;;;;;;;;6.20;85.20;;;-151.14;100.00;62537.16;5112086;28;19927;-80
2022/11/23 08:06:15;;;;;;;;;;;6.20;85.10;;;-151.14;100.00;62537.16;5111852;28;19919;-81
2022/11/23 08:08:43;;;;;;;;;;;6.20;85.10;;;-151.14;100.00;62537.16;5095071;28;20108;-81
2022/11/23 08:11:13;;;;;;;;;;;6.10;85.10;;;-151.14;100.00;62537.16;5095600;28;19926;-81
2022/11/23 08:13:41;;;;;;;;;;;6.20;85.20;;;-151.14;100.00;62537.16;5094943;28;19920;-81
2022/11/23 08:16:09;;;;;;;;;;;6.10;85.10;;;-151.14;100.00;62537.16;5094995;28;19919;-81
2022/11/23 08:18:38;;;;;;;;;;;6.20;85.10;;;-151.14;100.00;62537.16;5093782;28;20104;-80
2022/11/23 08:21:06;;;;;;;;;;;6.20;85.20;;;-151.14;100.00;62537.16;5078455;28;19920;-81
2022/11/23 08:23:34;;;;;;;;;;;6.10;85.20;;;-151.14;100.00;62537.16;5077886;28;19920;-81
2022/11/23 08:26:03;;;;;;;;;;;6.10;85.20;;;-151.14;100.00;62537.16;5112866;28;19920;-80
2022/11/23 08:28:31;;;;;;;;;;;6.20;85.20;;;-151.14;100.00;62537.16;5112043;28;20128;-81
2022/11/23 08:30:59;;;;;;;;;;;6.10;85.10;;;-151.14;100.00;62537.16;5094903;28;19920;-81
2022/11/23 08:33:27;;;;;;;;;;;6.20;85.10;;;-151.14;100.00;62537.16;5094936;28;19926;-80
2022/11/23 08:35:56;;;;;;;;;;;6.10;85.10;;;-151.14;100.00;62537.16;5111667;28;19926;-80
2022/11/23 08:38:25;;;;;;;;;;;6.20;85.10;;;-151.14;100.00;62537.16;5077919;28;19920;-80
2022/11/23 08:40:53;;;;;;;;;;;6.10;85.20;;;-151.14;100.00;62537.16;5111949;28;19926;-80
2022/11/23 08:43:21;;;;;;;;;;;6.10;85.10;;;-151.14;100.00;62537.16;5094516;28;20208;-80
2022/11/23 08:45:48;;;;;;;;;;;6.10;85.20;;;-151.14;100.00;62537.16;5094388;28;19939;-80
2022/11/23 08:48:16;;;;;;;;;;;6.20;85.10;;;-151.14;100.00;62537.16;5094624;28;20334;-80
2022/11/23 08:50:44;;;;;;;;;;;6.10;85.20;;;-151.14;100.00;62537.16;5112659;28;19926;-80
2022/11/23 08:53:14;;;;;;;;;;;6.20;85.10;;;-151.14;100.00;62537.16;5077841;28;20239;-80
2022/11/23 08:55:42;;;;;;;;;;;6.20;85.10;;;-151.14;100.00;62537.16;5094426;28;19919;-80
2022/11/23 08:58:09;;;;;;;;;;;6.10;85.10;;;-151.14;100.00;62537.16;5094383;28;19926;-80
2022/11/23 09:00:37;;;;;;;;;;;6.10;85.10;;;-151.14;100.00;62537.16;5094486;28;20212;-80
2022/11/23 09:03:05;;;;;;;;;;;6.20;85.10;;;-151.14;100.00;62537.16;5094239;28;19920;-80
2022/11/23 09:05:33;;;;;;;;;;;6.10;85.10;;;-151.14;100.00;62537.16;5093970;28;19920;-80
2022/11/23 09:08:01;;;;;;;;;;;6.20;85.00;;;-151.14;100.00;62537.16;5094114;28;19934;-80
2022/11/23 09:10:30;;;;;;;;;;;6.20;85.10;;;-151.14;100.00;62537.16;5094245;28;19919;-80
2022/11/23 09:12:58;;;;;;;;;;;6.20;85.10;;;-151.14;100.00;62537.16;5077603;28;20119;-80
2022/11/23 09:15:26;;;;;;;;;;;6.20;85.00;;;-151.14;100.00;62537.16;5076974;28;19920;-80
2022/11/23 09:17:54;;;;;;;;;;;6.20;85.00;;;-151.14;100.00;62537.16;5094015;28;19920;-80
2022/11/23 09:20:22;;;;;;;;;;;6.20;84.90;;;-151.14;100.00;62537.16;5112154;28;19920;-80
2022/11/23 09:22:51;;;;;;;;;;;6.20;84.90;;;-151.14;100.00;62537.16;5094261;28;20116;-80
2022/11/23 09:25:19;;;;;;;;;;;6.20;84.90;;;-151.14;100.00;62537.16;5076697;28;20112;-80
2022/11/23 09:27:48;;;;;;;;;;;6.20;85.00;;;-151.14;100.00;62537.16;5077319;28;19928;-80
2022/11/23 09:30:17;;;;;;;;;;;6.20;85.00;;;-151.14;100.00;62537.16;5093553;28;19920;-80
2022/11/23 09:32:45;;;;;;;;;;;6.20;85.00;;;-151.14;100.00;62537.16;5111237;28;19920;-81
2022/11/23 09:35:13;;;;;;;;;;;6.20;84.90;;;-151.14;100.00;62537.16;5093271;28;19919;-81
2022/11/23 09:37:41;;;;;;;;;;;6.20;84.90;;;-151.14;100.00;62537.16;5111856;28;19926;-80
2022/11/23 09:40:10;;;;;;;;;;;6.20;84.80;;;-151.14;100.00;62537.16;5094009;28;19928;-80
2022/11/23 09:42:56;;;;;;;;;;;6.20;84.80;;;-151.14;100.00;62537.16;5094079;28;19923;-80
2022/11/23 09:45:28;;;;;;;;;;;6.20;84.80;;;-151.14;100.00;62537.16;5091927;28;19926;-80
2022/11/23 09:48:03;;;;;;;;;;;6.20;84.70;;;-151.14;100.00;62537.16;5093783;28;20212;-80
2022/11/23 09:50:34;;;;;;;;;;;6.20;84.60;;;-151.14;100.00;62537.16;5093682;28;19926;-80
2022/11/23 09:53:04;;;;;;;;;;;6.20;84.70;;;-151.14;100.00;62537.16;5076931;28;19926;-80
2022/11/23 09:55:36;;;;;;;;;;;6.20;84.60;;;-151.14;100.00;62537.16;5111170;28;19920;-80
2022/11/23 09:58:06;;;;;;;;;;;6.20;84.60;;;-151.14;100.00;62537.16;5076857;28;19926;-80
2022/11/23 10:00:37;;;;;;;;;;;6.20;84.50;;;-151.14;100.00;62537.16;5093717;28;19919;-80
2022/11/23 10:03:05;;;;;;;;;;;6.20;84.60;;;-151.14;100.00;62537.16;5093777;28;20200;-80
2022/11/23 10:05:35;;;;;;;;;;;6.20;84.50;;;-151.14;100.00;62537.16;5110105;28;20227;-80
2022/11/23 10:08:06;;;;;;;;;;;6.30;84.60;;;-151.14;100.00;62537.16;5076697;28;19926;-80
2022/11/23 10:10:39;;;;;;;;;;;6.30;84.50;;;-151.14;100.00;62537.16;5093473;28;19926;-81
2022/11/23 10:13:22;;;;;;;;;;;6.30;84.40;;;-151.14;100.00;62537.16;5076719;28;19919;-80
2022/11/23 10:15:56;;;;;;;;;;;6.30;84.20;;;-151.14;100.00;62537.16;5111115;28;19920;-80
2022/11/23 10:18:29;;;;;;;;;;;6.30;84.20;;;-151.14;100.00;62537.16;5076409;28;19919;-80
2022/11/23 10:21:03;;;;;;;;;;;6.30;84.20;;;-151.14;100.00;62537.16;5110261;28;19927;-80
2022/11/23 10:23:54;;;;;;;;;;;6.30;84.10;;;-151.14;100.00;62537.16;5076343;28;19920;-81
2022/11/23 10:26:26;;;;;;;;;;;6.30;84.20;;;-151.14;100.00;62537.16;5111203;28;19927;-80
2022/11/23 10:28:56;;;;;;;;;;;6.30;84.10;;;-151.14;100.00;62537.16;5111298;28;19919;-80
2022/11/23 10:31:24;;;;;;;;;;;6.30;84.10;;;-151.14;100.00;62537.16;5111218;28;19928;-80
2022/11/23 10:33:55;;;;;;;;;;;6.30;84.00;;;-151.14;100.00;62537.16;5093139;28;19926;-80
2022/11/23 10:36:23;;;;;;;;;;;6.30;84.00;;;-151.14;100.00;62537.16;5076293;28;19920;-80
2022/11/23 10:38:51;;;;;;;;;;;6.30;84.00;;;-151.14;100.00;62537.16;5109797;28;19926;-80
2022/11/23 10:41:19;;;;;;;;;;;6.30;84.00;;;-151.14;100.00;62537.16;5093329;28;19920;-81
2022/11/23 10:43:50;;;;;;;;;;;6.30;83.90;;;-151.14;100.00;62537.16;5096589;28;20120;-80
2022/11/23 10:46:30;;;;;;;;;;;6.30;84.00;;;-151.14;100.00;62537.16;5079758;28;19919;-81
2022/11/23 10:49:10;;;;;;;;;;;6.30;83.90;;;-151.14;100.00;62537.16;5096383;28;19919;-80
2022/11/23 10:51:38;;;;;;;;;;;6.30;83.90;;;-151.14;100.00;62537.16;5113742;28;20230;-80
2022/11/23 10:54:16;;;;;;;;;;;6.30;83.90;;;-151.14;100.00;62537.16;5114424;28;19920;-80
2022/11/23 10:56:46;;;;;;;;;;;6.30;84.00;;;-151.14;100.00;62537.16;5096142;28;19926;-81
2022/11/23 10:59:26;;;;;;;;;;;6.30;83.90;;;-151.14;100.00;62537.16;5075881;28;19920;-80
2022/11/23 11:02:17;;;;;;;;;;;6.30;83.90;;;-151.14;100.00;62537.16;5076253;28;19926;-80
2022/11/23 11:04:45;;;;;;;;;;;6.30;84.00;;;-151.14;100.00;62537.16;5058955;28;19920;-81
2022/11/23 11:07:22;;;;;;;;;;;6.30;83.90;;;-151.14;100.00;62537.16;5059393;28;19920;-81
2022/11/23 11:09:51;;;;;;;;;;;6.30;83.80;;;-151.14;100.00;62537.16;5093911;28;19922;-80
2022/11/23 11:12:19;;;;;;;;;;;6.30;83.80;;;-151.14;100.00;62537.16;5076103;28;19920;-80
2022/11/23 11:15:01;;;;;;;;;;;6.40;83.80;;;-151.14;100.00;62537.16;5075323;28;19920;-81
2022/11/23 11:17:32;;;;;;;;;;;6.40;83.80;;;-151.14;100.00;62537.16;5075998;28;19927;-81